Flight Track Log - Related Links

Times and Time Zones

All times are in EDT time to prevent confusion due to time zone crossing. See the N373LD flight status page for this flight to view local times or setup timezone preferences in your user account.

Time Position Orientation Groundspeed Altitude Reporting Facility
EDT Latitude Longitude Course Direction KTS MPH feet Rate Location/Type
Mon 06:54:02 PM 35.4453 -101.2636 157° South 167 192 12,700  Level Albuquerque Center
Mon 06:55:04 PM 35.3981 -101.2400 158° South 176 203 13,700 683 Climbing Albuquerque Center
Mon 06:56:05 PM 35.3447 -101.2119 157° South 197 227 14,100 976 Climbing Albuquerque Center
Mon 06:57:07 PM 35.2764 -101.1772 157° South 217 250 15,700 1,070 Climbing Albuquerque Center
Mon 06:59:10 PM 35.1756 -101.1258 157° South 197 227 17,400 1,005 Climbing Albuquerque Center
Mon 07:00:12 PM 35.1239 -101.0978 156° South 201 231 18,800 1,065 Climbing Albuquerque Center
Mon 07:01:14 PM 35.0750 -101.0722 157° South 196 226 19,600 927 Climbing Albuquerque Center
Mon 07:02:15 PM 35.0208 -101.0447 157° South 202 232 20,700 1,073 Climbing Albuquerque Center
Mon 07:03:17 PM 34.9694 -101.0181 157° South 204 235 21,800 1,065 Climbing Albuquerque Center
Mon 07:04:19 PM 34.9164 -100.9911 157° South 204 235 22,900 1,220 Climbing Albuquerque Center
Mon 07:05:20 PM 34.8542 -100.9600 158° South 203 234 24,300 1,073 Climbing Albuquerque Center
Mon 07:06:22 PM 34.8008 -100.9322 157° South 204 235 25,100 780 Climbing Albuquerque Center
Mon 07:07:23 PM 34.7442 -100.9031 157° South 213 245 25,900 780 Climbing Albuquerque Center
Mon 07:08:25 PM 34.6861 -100.8728 157° South 220 253 26,700 537 Climbing Albuquerque Center
Mon 07:09:26 PM 34.6219 -100.8411 158° South 239 275 27,000 146 Climbing Albuquerque Center
Mon 07:10:28 PM 34.5531 -100.8061 157° South 259 298 27,000  Level Albuquerque Center
Mon 07:11:29 PM 34.4794 -100.7692 158° South 279 321 27,000  Level Albuquerque Center
Mon 07:12:31 PM 34.4058 -100.7308 157° South 285 328 27,000  Level Albuquerque Center
Mon 07:13:32 PM 34.3178 -100.6858 157° South 285 328 27,000  Level Albuquerque Center
Mon 07:14:34 PM 34.2447 -100.6486 157° South 285 328 27,000  Level Albuquerque Center
Mon 07:15:35 PM 34.1728 -100.6131 158° South 284 327 27,000  Level Albuquerque Center
Mon 07:16:37 PM 34.1003 -100.5783 158° South 283 326 27,000  Level Albuquerque Center
Mon 07:17:53 PM 34.0147 -100.5344 157° South 281 323 27,000  Level Fort Worth Center
Mon 07:18:55 PM 33.9458 -100.4983 156° South 281 323 27,000  Level Fort Worth Center
Mon 07:19:57 PM 33.8592 -100.4578 159° South 279 321 27,000  Level Fort Worth Center
Mon 07:20:59 PM 33.7872 -100.4222 158° South 279 321 27,000  Level Fort Worth Center
Mon 07:22:01 PM 33.7150 -100.3864 158° South 280 322 27,000  Level Fort Worth Center
Mon 07:23:03 PM 33.6433 -100.3500 157° South 280 322 27,000  Level Fort Worth Center
Mon 07:24:05 PM 33.5708 -100.3144 158° South 280 322 27,000  Level Fort Worth Center
Mon 07:25:08 PM 33.4967 -100.2767 157° South 280 322 27,000  Level Fort Worth Center
Mon 07:26:10 PM 33.4114 -100.2356 158° South 280 322 27,000  Level Fort Worth Center
Mon 07:27:12 PM 33.3386 -100.2011 158° South 280 322 27,000  Level Fort Worth Center
Mon 07:28:14 PM 33.2664 -100.1650 157° South 280 322 27,000  Level Fort Worth Center
Mon 07:29:16 PM 33.1944 -100.1300 158° South 280 322 27,000  Level Fort Worth Center
Mon 07:30:18 PM 33.1225 -100.0953 158° South 280 322 27,000  Level Fort Worth Center
Mon 07:31:20 PM 33.0500 -100.0597 158° South 280 322 27,000  Level Fort Worth Center
Mon 07:32:22 PM 32.9631 -100.0172 158° South 280 322 27,000  Level Fort Worth Center
Mon 07:33:24 PM 32.8897 -99.9811 158° South 280 322 27,000  Level Fort Worth Center
Mon 07:34:27 PM 32.8169 -99.9456 158° South 281 323 27,000  Level Fort Worth Center
Mon 07:35:29 PM 32.7431 -99.9089 157° South 281 323 27,000  Level Fort Worth Center
Mon 07:36:31 PM 32.6697 -99.8722 157° South 281 323 27,000  Level Fort Worth Center
Mon 07:37:33 PM 32.5878 -99.8339 158° South 283 326 27,000  Level Fort Worth Center
Mon 07:38:35 PM 32.5153 -99.7981 157° South 286 329 27,000  Level Fort Worth Center
Mon 07:39:37 PM 32.4439 -99.7633 158° South 279 321 27,000  Level Fort Worth Center
Mon 07:40:39 PM 32.3711 -99.7278 158° South 281 323 27,000  Level Fort Worth Center
Mon 07:41:41 PM 32.2839 -99.6853 158° South 281 323 27,000  Level Fort Worth Center
Mon 07:42:43 PM 32.2122 -99.6511 158° South 281 323 27,000  Level Fort Worth Center
Mon 07:43:45 PM 32.1400 -99.6153 157° South 281 323 27,000  Level Fort Worth Center
Mon 07:44:48 PM 32.0681 -99.5817 158° South 280 322 27,000  Level Fort Worth Center
Mon 07:45:50 PM 31.9944 -99.5461 158° South 280 322 27,000  Level Fort Worth Center
Mon 07:46:52 PM 31.9217 -99.5114 158° South 281 323 27,000  Level Fort Worth Center
Mon 07:47:54 PM 31.8333 -99.4686 158° South 283 326 27,000  Level Fort Worth Center
Mon 07:48:56 PM 31.7603 -99.4336 158° South 283 326 27,000  Level Fort Worth Center
Mon 07:49:58 PM 31.6881 -99.3989 158° South 283 326 27,000  Level Fort Worth Center
Mon 07:51:00 PM 31.6117 -99.3639 159° South 281 323 27,000  Level Fort Worth Center
Mon 07:52:02 PM 31.5450 -99.3314 157° South 280 322 27,000  Level Fort Worth Center
Mon 07:53:04 PM 31.4683 -99.2958 158° South 280 322 27,000  Level Houston Center
Mon 07:54:06 PM 31.3964 -99.2625 158° South 278 320 27,000  Level Houston Center
Mon 07:55:09 PM 31.3256 -99.2278 157° South 278 320 27,000 -240 Level Houston Center
Mon 07:56:11 PM 31.2372 -99.1867 158° South 284 327 26,500 -484 Descending Houston Center
Mon 07:57:13 PM 31.1647 -99.1531 158° South 288 331 26,000 -484 Descending Houston Center
Mon 07:58:15 PM 31.0861 -99.1158 158° South 290 334 25,500 -484 Descending Houston Center
Mon 07:59:17 PM 31.0117 -99.0814 158° South 290 334 25,000 -484 Descending Houston Center
Mon 08:00:19 PM 30.9386 -99.0456 157° South 287 330 24,500 -435 Descending Houston Center
Mon 08:01:21 PM 30.8650 -99.0117 158° South 284 327 24,100 -242 Descending Houston Center
Mon 08:02:23 PM 30.7817 -98.9722 158° South 276 318 24,000 -48 Descending Houston Center
Mon 08:03:25 PM 30.7114 -98.9392 158° South 273 314 24,000  Level Houston Center
Mon 08:04:27 PM 30.6411 -98.9078 159° South 272 313 24,000 -242 Level Houston Center
Mon 08:05:29 PM 30.5678 -98.8728 158° South 277 319 23,500 -484 Descending Houston Center
Mon 08:06:31 PM 30.4964 -98.8406 159° South 277 319 23,000 -484 Descending Houston Center
Mon 08:07:33 PM 30.4150 -98.8036 159° South 275 316 22,500 -484 Descending Houston Center
Mon 08:08:35 PM 30.3447 -98.7694 157° South 272 313 22,000 -484 Descending Houston Center
Mon 08:09:37 PM 30.2689 -98.7353 159° South 273 314 21,500 -484 Descending Houston Center
Mon 08:10:39 PM 30.1986 -98.7028 158° South 272 313 21,000 -484 Descending Houston Center
Mon 08:11:41 PM 30.1225 -98.6858 169° South 261 300 20,500 -529 Descending Houston Center
Mon 08:11:47 PM 30.1158 -98.6844 170° South 256 295 20,400 -500 Descending Houston Center
Mon 08:12:41 PM 30.0536 -98.6678 167° South 255 293 20,000 -429 Descending Houston Center
Mon 08:12:43 PM 30.0536 -98.6669 90° East 259 298 20,000 -492 Level Houston Center
Mon 08:13:42 PM 29.9836 -98.6592 175° South 251 289 19,500 -484 Descending Houston Center
Mon 08:13:45 PM 29.9789 -98.6569 158° South 253 291 19,500 -1,279 Level Houston Center
Mon 08:14:43 PM 29.9133 -98.6481 173° South 251 289 18,200 -1,548 Descending Houston Center
Mon 08:14:47 PM 29.9094 -98.6478 176° South 253 291 17,900 -1,967 Descending Houston Center
Mon 08:15:44 PM 29.8497 -98.6414 175° South 232 267 16,200 -1,742 Descending Houston Center
Mon 08:15:49 PM 29.8461 -98.6397 158° South 232 267 16,100 -1,900 Descending Houston Center
Mon 08:16:44 PM 29.7903 -98.6339 175° South 212 244 14,300 -1,935 Descending Houston Center
Mon 08:16:51 PM 29.7819 -98.6328 173° South 216 249 14,100 -1,672 Descending Houston Center
Mon 08:17:45 PM 29.7256 -98.6392 186° South 221 254 12,600 -1,548 Descending Houston Center
Mon 08:17:53 PM 29.7222 -98.6397 188° South 216 249 12,500 -1,475 Descending Houston Center
Mon 08:18:46 PM 29.6656 -98.6486 188° South 219 252 11,100 -1,645 Descending Houston Center
Mon 08:18:55 PM 29.6569 -98.6475 174° South 219 252 10,800 -1,574 Descending Houston Center
Mon 08:19:47 PM 29.6122 -98.6167 149° Southeast 220 253 9,500 -1,548 Descending Houston Center
Mon 08:19:57 PM 29.6058 -98.6103 139° Southeast 220 253 9,200 -1,700 Descending Houston Center
Mon 08:20:47 PM 29.5606 -98.5794 149° Southeast 225 259 7,800 -1,645 Descending Houston Center
Mon 08:20:59 PM 29.5489 -98.5706 146° Southeast 222 255 7,500 -1,279 Descending Houston Center
Mon 08:21:48 PM 29.5069 -98.5450 152° Southeast 200 230 6,500 -1,065 Descending Houston Center
Mon 08:22:01 PM 29.5000 -98.5397 147° Southeast 203 234 6,400 -400 Descending Houston Center
Mon 08:23:03 PM 29.4528 -98.5103 151° Southeast 185 213 6,000 -968 Descending Houston Center
Mon 08:24:05 PM 29.4061 -98.4831 153° Southeast 185 213 4,400 -1,907 Descending Houston Center
Mon 08:24:50 PM 29.3694 -98.4656 157° South 185 213 2,600 -2,190 Descending Houston Center
Mon 08:25:08 PM 29.3553 -98.4597 160° South 183 211 2,100 -1,100 Descending Houston Center
Mon 08:25:50 PM 29.3633 -98.4422 62° Northeast 121 139 1,500 -774 Descending Houston Center
Mon 08:26:10 PM 29.3733 -98.4472 336° Northwest 128 147 1,300 -295 Descending Houston Center
Mon 08:26:51 PM 29.3639 -98.4711 246° West 112 129 1,200 -97 Descending Houston Center
Mon 08:27:12 PM 29.3581 -98.4839 242° Southwest 121 139 1,200 -434 Level Houston Center
Mon 08:28:14 PM 29.3375 -98.4683 147° Southeast 100 115 600 -581 Descending Houston Center
Mon 08:30:00 PM 29.3333 -98.4667 180° South  Level FlightAware Approximate

Login

Don't have an account? Register now (free) for customized features, flight alerts, and more!